Time;durP1;ratioP1;P1;durP2;ratioP2;P2;SDS_P1;SDS_P2;PMS_P1;PMS_P2;Temp;Humidity;BMP_temperature;BMP_pressure;BME280_temperature;BME280_humidity;BME280_pressure;Samples;Min_cycle;Max_cycle;Signal;HPM_P1;HPM_P2
2023/10/01 00:03:55;;;;;;;11.18;9.07;;;;;;;;;;13102871;22;20424;-82
2023/10/01 00:08:58;;;;;;;14.43;9.20;;;;;;;;;;13104122;22;20424;-82
2023/10/01 00:14:01;;;;;;;10.88;9.50;;;;;;;;;;13103733;22;20436;-82
2023/10/01 00:19:05;;;;;;;12.52;9.52;;;;;;;;;;13104225;22;20432;-82
2023/10/01 00:24:08;;;;;;;12.87;10.20;;;;;;;;;;13104856;22;20367;-82
2023/10/01 00:29:11;;;;;;;11.68;10.13;;;;;;;;;;13077159;22;20359;-82
2023/10/01 00:34:15;;;;;;;11.40;9.83;;;;;;;;;;13105654;22;20355;-82
2023/10/01 00:39:18;;;;;;;13.33;10.50;;;;;;;;;;13125316;22;20436;-82
2023/10/01 00:44:20;;;;;;;13.40;10.23;;;;;;;;;;13100746;22;20371;-82
2023/10/01 00:49:25;;;;;;;12.80;9.98;;;;;;;;;;13101613;22;20371;-82
2023/10/01 00:54:29;;;;;;;13.02;10.32;;;;;;;;;;13103795;22;20434;-82
2023/10/01 00:59:33;;;;;;;15.23;10.17;;;;;;;;;;13126202;22;20749;-82
2023/10/01 01:04:42;;;;;;;10.43;8.82;;;;;;;;;;13104123;22;20437;-83
2023/10/01 01:09:45;;;;;;;10.77;9.07;;;;;;;;;;13108463;22;20360;-83
2023/10/01 01:14:48;;;;;;;11.98;8.50;;;;;;;;;;13107166;22;20368;-82
2023/10/01 01:19:53;;;;;;;10.50;8.88;;;;;;;;;;13130615;22;20986;-83
2023/10/01 01:25:00;;;;;;;13.02;9.73;;;;;;;;;;13108940;22;20397;-82
2023/10/01 01:30:07;;;;;;;13.75;9.73;;;;;;;;;;13130233;22;20351;-82
2023/10/01 01:35:10;;;;;;;11.93;9.40;;;;;;;;;;13108685;22;20389;-82
2023/10/01 01:40:24;;;;;;;12.97;9.57;;;;;;;;;;13107698;22;20441;-82
2023/10/01 01:45:27;;;;;;;11.15;9.40;;;;;;;;;;13080172;22;20413;-82
2023/10/01 01:50:31;;;;;;;11.77;9.43;;;;;;;;;;13129907;22;20355;-82
2023/10/01 01:55:35;;;;;;;12.35;9.30;;;;;;;;;;13108123;22;20390;-82
2023/10/01 02:00:39;;;;;;;10.57;8.73;;;;;;;;;;13129807;22;20371;-81
2023/10/01 02:05:42;;;;;;;15.48;9.27;;;;;;;;;;13128330;22;20452;-82
2023/10/01 02:10:46;;;;;;;10.50;8.65;;;;;;;;;;13107114;22;20355;-82
2023/10/01 02:15:50;;;;;;;11.45;8.75;;;;;;;;;;13107112;22;20363;-82
2023/10/01 02:20:56;;;;;;;10.70;8.75;;;;;;;;;;13108741;22;20542;-82
2023/10/01 02:26:00;;;;;;;12.38;8.73;;;;;;;;;;13107567;22;20359;-82
2023/10/01 02:31:06;;;;;;;11.90;9.05;;;;;;;;;;13103464;22;20432;-82
2023/10/01 02:36:12;;;;;;;10.77;8.95;;;;;;;;;;13122106;22;20409;-80
2023/10/01 02:41:16;;;;;;;12.25;9.00;;;;;;;;;;13127726;22;20351;-82
2023/10/01 02:46:26;;;;;;;11.17;9.07;;;;;;;;;;13107034;22;20366;-81
2023/10/01 02:51:37;;;;;;;11.15;9.05;;;;;;;;;;13078442;22;20387;-82
2023/10/01 02:56:52;;;;;;;10.47;8.90;;;;;;;;;;13105702;22;20523;-82
2023/10/01 03:01:55;;;;;;;10.48;9.30;;;;;;;;;;13106727;22;20393;-83
2023/10/01 03:06:57;;;;;;;12.63;9.18;;;;;;;;;;13106908;22;20359;-81
2023/10/01 03:17:18;;;;;;;12.00;8.93;;;;;;;;;;13104247;22;20436;-82
2023/10/01 03:22:23;;;;;;;10.70;8.87;;;;;;;;;;13105753;22;20359;-83
2023/10/01 03:27:27;;;;;;;11.48;9.25;;;;;;;;;;13105267;22;20420;-82
2023/10/01 03:32:33;;;;;;;11.43;9.05;;;;;;;;;;13105568;22;20367;-82
2023/10/01 03:37:44;;;;;;;11.60;9.20;;;;;;;;;;13106572;22;20417;-82
2023/10/01 03:42:51;;;;;;;12.27;8.80;;;;;;;;;;13106622;22;20360;-81
2023/10/01 03:47:58;;;;;;;10.93;9.02;;;;;;;;;;13106184;22;20389;-82
2023/10/01 03:53:00;;;;;;;13.80;9.20;;;;;;;;;;13105745;22;20417;-82
2023/10/01 03:58:18;;;;;;;11.27;9.18;;;;;;;;;;13104963;22;20378;-81
2023/10/01 04:03:22;;;;;;;11.80;9.60;;;;;;;;;;13105844;22;20409;-81
2023/10/01 04:08:24;;;;;;;13.82;9.95;;;;;;;;;;13106388;22;20440;-81
2023/10/01 04:13:28;;;;;;;17.40;12.07;;;;;;;;;;13106158;22;20420;-81
2023/10/01 04:18:33;;;;;;;15.20;10.18;;;;;;;;;;13104222;22;20387;-81
2023/10/01 04:23:40;;;;;;;12.95;9.88;;;;;;;;;;13105178;22;20707;-81
2023/10/01 04:28:46;;;;;;;11.43;9.32;;;;;;;;;;13105000;22;20401;-81
2023/10/01 04:33:50;;;;;;;11.57;9.20;;;;;;;;;;13103843;22;20393;-81
2023/10/01 04:39:00;;;;;;;12.88;9.73;;;;;;;;;;13104357;22;20383;-81
2023/10/01 04:44:07;;;;;;;11.30;8.95;;;;;;;;;;13107811;22;20416;-82
2023/10/01 04:49:26;;;;;;;10.43;9.03;;;;;;;;;;13108436;22;20487;-82
2023/10/01 04:54:29;;;;;;;10.87;8.93;;;;;;;;;;13106688;22;20447;-82
2023/10/01 04:59:33;;;;;;;11.40;8.95;;;;;;;;;;13107814;22;20379;-82
2023/10/01 05:04:35;;;;;;;12.48;9.23;;;;;;;;;;13104539;22;20356;-82
2023/10/01 05:09:37;;;;;;;10.97;8.93;;;;;;;;;;13103947;22;20394;-82
2023/10/01 05:14:59;;;;;;;13.00;8.82;;;;;;;;;;13108071;22;20375;-82
2023/10/01 05:20:08;;;;;;;10.48;8.55;;;;;;;;;;13106093;22;20374;-83
2023/10/01 05:25:12;;;;;;;10.75;8.43;;;;;;;;;;13106106;22;20487;-82
2023/10/01 05:35:33;;;;;;;10.95;8.65;;;;;;;;;;13128202;22;20429;-81
2023/10/01 05:40:37;;;;;;;12.02;8.40;;;;;;;;;;13107258;22;20862;-83
2023/10/01 05:45:44;;;;;;;10.57;8.40;;;;;;;;;;13101661;22;20908;-83
2023/10/01 05:50:47;;;;;;;12.80;8.82;;;;;;;;;;13123169;22;20347;-82
2023/10/01 05:55:49;;;;;;;10.10;8.27;;;;;;;;;;13103157;22;20735;-82
2023/10/01 06:00:57;;;;;;;10.20;7.93;;;;;;;;;;13102237;22;20379;-83
2023/10/01 06:06:08;;;;;;;11.40;7.82;;;;;;;;;;13125843;22;20388;-82
2023/10/01 06:11:13;;;;;;;11.48;8.00;;;;;;;;;;13107549;22;20428;-82
2023/10/01 06:16:22;;;;;;;9.50;8.13;;;;;;;;;;13103479;22;20421;-83
2023/10/01 06:21:26;;;;;;;12.07;8.80;;;;;;;;;;13107116;22;20491;-82
2023/10/01 06:26:36;;;;;;;9.60;7.97;;;;;;;;;;13128586;22;20363;-82
2023/10/01 06:31:52;;;;;;;11.00;8.30;;;;;;;;;;13106532;22;20355;-83
2023/10/01 06:36:57;;;;;;;12.57;8.27;;;;;;;;;;13106808;22;20424;-82
2023/10/01 06:47:17;;;;;;;10.80;8.43;;;;;;;;;;13104539;22;21091;-82
2023/10/01 06:52:20;;;;;;;10.90;8.53;;;;;;;;;;13106969;22;20364;-83
2023/10/01 06:57:23;;;;;;;9.63;8.57;;;;;;;;;;13128319;22;20363;-83
2023/10/01 07:02:28;;;;;;;11.20;8.80;;;;;;;;;;13106599;22;20359;-83
2023/10/01 07:07:30;;;;;;;11.32;8.05;;;;;;;;;;13106552;22;20360;-82
2023/10/01 07:12:35;;;;;;;12.90;8.32;;;;;;;;;;13104013;22;20488;-83
2023/10/01 07:17:39;;;;;;;11.60;8.35;;;;;;;;;;13107693;22;20359;-82
2023/10/01 07:22:44;;;;;;;12.00;8.77;;;;;;;;;;13103458;22;20348;-83
2023/10/01 07:27:46;;;;;;;10.32;8.73;;;;;;;;;;13106662;22;20355;-83
2023/10/01 07:32:50;;;;;;;12.82;9.73;;;;;;;;;;13105575;22;20831;-83
2023/10/01 07:37:53;;;;;;;10.80;8.55;;;;;;;;;;13101055;22;20367;-83
2023/10/01 07:42:57;;;;;;;11.40;8.43;;;;;;;;;;13101977;22;20367;-83
2023/10/01 07:48:04;;;;;;;10.38;8.30;;;;;;;;;;13104233;22;20363;-83
2023/10/01 07:53:07;;;;;;;10.10;8.20;;;;;;;;;;13100781;22;20354;-82
2023/10/01 07:58:25;;;;;;;10.70;8.38;;;;;;;;;;13117988;22;21062;-84
2023/10/01 08:03:32;;;;;;;13.10;9.77;;;;;;;;;;13102521;22;20385;-83
2023/10/01 08:08:37;;;;;;;11.57;8.97;;;;;;;;;;13101752;22;20656;-83
2023/10/01 08:13:39;;;;;;;11.45;9.85;;;;;;;;;;13103669;22;20367;-83
2023/10/01 08:18:46;;;;;;;10.37;9.03;;;;;;;;;;13107519;22;20383;-83
2023/10/01 08:23:49;;;;;;;11.67;8.73;;;;;;;;;;13109925;22;20359;-83
2023/10/01 08:28:57;;;;;;;10.53;7.97;;;;;;;;;;13108936;22;20429;-83
2023/10/01 08:34:22;;;;;;;10.80;7.65;;;;;;;;;;13109022;22;20359;-83
2023/10/01 08:39:47;;;;;;;9.27;7.33;;;;;;;;;;13130593;22;20370;-83
2023/10/01 08:44:50;;;;;;;8.70;6.67;;;;;;;;;;13108289;22;20835;-83
2023/10/01 08:49:56;;;;;;;10.25;7.30;;;;;;;;;;13102991;22;21263;-83
2023/10/01 08:54:59;;;;;;;8.15;6.43;;;;;;;;;;13126007;22;20412;-83
2023/10/01 09:00:14;;;;;;;8.68;6.47;;;;;;;;;;13130415;22;20378;-83
2023/10/01 09:05:23;;;;;;;9.27;6.60;;;;;;;;;;13103208;22;20797;-83
2023/10/01 09:10:37;;;;;;;6.23;4.13;;;;;;;;;;13105726;22;20359;-83
2023/10/01 09:15:43;;;;;;;5.07;4.25;;;;;;;;;;13128886;22;20425;-83
2023/10/01 09:21:06;;;;;;;5.68;4.05;;;;;;;;;;13107184;22;20432;-83
2023/10/01 09:26:08;;;;;;;5.32;4.45;;;;;;;;;;13106452;22;20410;-83
2023/10/01 09:31:26;;;;;;;7.27;4.97;;;;;;;;;;13105240;22;20371;-82
2023/10/01 09:36:45;;;;;;;6.10;4.28;;;;;;;;;;13107554;22;20420;-83
2023/10/01 09:41:50;;;;;;;7.27;4.60;;;;;;;;;;13108597;22;20379;-84
2023/10/01 09:47:07;;;;;;;5.93;4.43;;;;;;;;;;13127664;22;20385;-83
2023/10/01 09:52:13;;;;;;;6.57;4.72;;;;;;;;;;13104480;22;20359;-84
2023/10/01 09:57:16;;;;;;;6.35;4.53;;;;;;;;;;13105757;22;20384;-83
2023/10/01 10:02:27;;;;;;;8.93;4.77;;;;;;;;;;13105697;22;20383;-83
2023/10/01 10:07:32;;;;;;;6.47;4.70;;;;;;;;;;13101016;22;20371;-83
2023/10/01 10:12:35;;;;;;;5.73;4.43;;;;;;;;;;13095286;22;20375;-83
2023/10/01 10:17:58;;;;;;;6.20;3.87;;;;;;;;;;13092591;22;20454;-82
2023/10/01 10:23:29;;;;;;;6.67;4.33;;;;;;;;;;13090209;22;20946;-82
2023/10/01 10:28:55;;;;;;;6.82;4.20;;;;;;;;;;13091679;22;20367;-83
2023/10/01 10:34:25;;;;;;;7.15;4.32;;;;;;;;;;13091138;22;20427;-82
2023/10/01 10:40:23;;;;;;;7.13;4.63;;;;;;;;;;13109156;22;20413;-83
2023/10/01 10:45:31;;;;;;;5.20;3.85;;;;;;;;;;13091523;22;20367;-84
2023/10/01 10:50:45;;;;;;;5.93;4.10;;;;;;;;;;13123932;22;20419;-84
2023/10/01 10:55:53;;;;;;;4.95;4.00;;;;;;;;;;13103239;22;20367;-83
2023/10/01 11:01:15;;;;;;;10.27;4.40;;;;;;;;;;13105266;22;20375;-83
2023/10/01 11:06:19;;;;;;;6.03;4.10;;;;;;;;;;13095919;22;20440;-84
2023/10/01 11:11:24;;;;;;;6.03;4.10;;;;;;;;;;13095760;22;20367;-83
2023/10/01 11:16:37;;;;;;;6.40;4.30;;;;;;;;;;13094178;22;20363;-83
2023/10/01 11:21:58;;;;;;;6.47;4.65;;;;;;;;;;13093273;22;20436;-83
2023/10/01 11:27:18;;;;;;;7.20;4.30;;;;;;;;;;13095504;22;20719;-82
2023/10/01 11:32:57;;;;;;;8.10;4.70;;;;;;;;;;13094555;22;20444;-83
2023/10/01 11:38:11;;;;;;;6.00;4.25;;;;;;;;;;13093777;22;20371;-82
2023/10/01 11:43:23;;;;;;;6.28;4.10;;;;;;;;;;13094684;22;20375;-83
2023/10/01 11:48:56;;;;;;;7.78;3.90;;;;;;;;;;13094994;22;20406;-82
2023/10/01 11:54:07;;;;;;;7.90;4.80;;;;;;;;;;13092583;22;20432;-83
2023/10/01 11:59:18;;;;;;;8.63;5.33;;;;;;;;;;13084696;22;20826;-82
2023/10/01 12:09:51;;;;;;;6.95;4.50;;;;;;;;;;13082816;22;20712;-82
2023/10/01 12:14:54;;;;;;;7.05;4.18;;;;;;;;;;13090030;22;20379;-82
2023/10/01 12:20:00;;;;;;;5.83;4.37;;;;;;;;;;13089419;22;20723;-83
2023/10/01 12:25:03;;;;;;;6.15;4.30;;;;;;;;;;13090194;22;20457;-82
2023/10/01 12:30:10;;;;;;;7.85;4.15;;;;;;;;;;13089375;22;20462;-83
2023/10/01 12:35:27;;;;;;;5.75;4.13;;;;;;;;;;13089558;22;20371;-84
2023/10/01 12:40:33;;;;;;;6.65;4.30;;;;;;;;;;13090155;22;20413;-83
2023/10/01 12:45:37;;;;;;;5.95;4.15;;;;;;;;;;13089379;22;20787;-82
2023/10/01 12:50:59;;;;;;;5.65;4.00;;;;;;;;;;13087620;22;20363;-83
2023/10/01 12:56:04;;;;;;;7.43;4.40;;;;;;;;;;13112274;22;20389;-84
2023/10/01 13:01:27;;;;;;;5.60;4.07;;;;;;;;;;13091830;22;20387;-84
2023/10/01 13:06:31;;;;;;;5.03;4.15;;;;;;;;;;13096278;22;20375;-82
2023/10/01 13:11:50;;;;;;;5.10;3.90;;;;;;;;;;13094591;22;20375;-84
2023/10/01 13:16:56;;;;;;;5.90;4.13;;;;;;;;;;13095738;22;20846;-83
2023/10/01 13:22:04;;;;;;;5.97;4.33;;;;;;;;;;13097089;22;20383;-83
2023/10/01 13:27:13;;;;;;;7.87;4.37;;;;;;;;;;13099129;22;20413;-84
2023/10/01 13:32:16;;;;;;;6.38;4.28;;;;;;;;;;13099330;22;20370;-84
2023/10/01 14:09:17;;;;;;;5.37;4.17;;;;;;;;;;13116853;22;20425;-84
2023/10/01 14:14:19;;;;;;;5.78;4.45;;;;;;;;;;13099686;22;20371;-84
2023/10/01 14:19:22;;;;;;;5.97;4.32;;;;;;;;;;13093487;22;20866;-84
2023/10/01 14:24:26;;;;;;;6.47;4.10;;;;;;;;;;13118966;22;20355;-83
2023/10/01 14:29:33;;;;;;;8.47;4.90;;;;;;;;;;13098526;22;20371;-85
2023/10/01 14:34:36;;;;;;;7.40;4.30;;;;;;;;;;13094055;22;20367;-85
2023/10/01 14:39:47;;;;;;;6.70;4.40;;;;;;;;;;13095610;22;20379;-85
2023/10/01 14:44:50;;;;;;;5.32;4.30;;;;;;;;;;13094900;22;20371;-85
2023/10/01 14:49:53;;;;;;;5.80;4.20;;;;;;;;;;13095080;22;20375;-85
2023/10/01 14:55:02;;;;;;;6.03;4.43;;;;;;;;;;13095801;22;20437;-85
2023/10/01 15:00:16;;;;;;;9.35;4.53;;;;;;;;;;13094726;22;20379;-85
2023/10/01 15:05:19;;;;;;;5.22;4.13;;;;;;;;;;13109381;22;20794;-81
2023/10/01 15:10:23;;;;;;;5.50;4.10;;;;;;;;;;13095485;22;20375;-81
2023/10/01 15:15:27;;;;;;;7.82;4.15;;;;;;;;;;13093544;22;20405;-82
2023/10/01 15:20:47;;;;;;;6.07;4.45;;;;;;;;;;13092609;22;20375;-82
2023/10/01 15:25:51;;;;;;;7.20;4.40;;;;;;;;;;13093442;22;20351;-82
2023/10/01 15:30:54;;;;;;;6.70;4.27;;;;;;;;;;13093497;22;20359;-82
2023/10/01 15:36:05;;;;;;;6.82;4.30;;;;;;;;;;13093413;22;20379;-84
2023/10/01 15:41:10;;;;;;;7.00;4.50;;;;;;;;;;13088536;22;20862;-84
2023/10/01 15:46:13;;;;;;;5.97;4.60;;;;;;;;;;13093057;22;20386;-83
2023/10/01 15:51:25;;;;;;;7.70;4.78;;;;;;;;;;13099298;22;20359;-82
2023/10/01 15:56:32;;;;;;;5.97;4.50;;;;;;;;;;13092982;22;20371;-83
2023/10/01 16:01:34;;;;;;;7.38;4.20;;;;;;;;;;13094350;22;20379;-80
2023/10/01 16:06:37;;;;;;;5.63;4.47;;;;;;;;;;13089420;22;20436;-82
2023/10/01 16:11:41;;;;;;;6.45;4.50;;;;;;;;;;13099719;22;20389;-80
2023/10/01 16:16:44;;;;;;;7.82;4.65;;;;;;;;;;13085780;22;20479;-81
2023/10/01 16:21:54;;;;;;;7.78;5.25;;;;;;;;;;13087619;22;20490;-82
2023/10/01 16:27:06;;;;;;;8.43;5.20;;;;;;;;;;13112566;22;20359;-83
2023/10/01 16:32:19;;;;;;;7.38;5.07;;;;;;;;;;13088366;22;20808;-84
2023/10/01 16:37:22;;;;;;;12.15;8.60;;;;;;;;;;13092190;22;20371;-83
2023/10/01 16:42:26;;;;;;;8.65;5.90;;;;;;;;;;13095366;22;20959;-82
2023/10/01 16:47:30;;;;;;;8.93;5.23;;;;;;;;;;13091465;22;20839;-83
2023/10/01 16:52:39;;;;;;;7.40;4.93;;;;;;;;;;13100653;22;20367;-82
2023/10/01 16:57:47;;;;;;;6.40;4.97;;;;;;;;;;13095431;22;20382;-82
2023/10/01 17:02:49;;;;;;;10.23;5.37;;;;;;;;;;13091303;22;20495;-82
2023/10/01 17:07:52;;;;;;;8.82;5.60;;;;;;;;;;13090050;22;20371;-83
2023/10/01 17:12:56;;;;;;;8.43;5.43;;;;;;;;;;13091635;22;20383;-82
2023/10/01 17:18:03;;;;;;;12.95;5.35;;;;;;;;;;13089666;22;20375;-82
2023/10/01 17:23:11;;;;;;;10.35;5.18;;;;;;;;;;13089176;22;20929;-82
2023/10/01 17:33:36;;;;;;;9.88;6.53;;;;;;;;;;13090342;22;20367;-82
2023/10/01 17:38:38;;;;;;;8.63;5.47;;;;;;;;;;13093710;22;20413;-82
2023/10/01 17:43:43;;;;;;;8.97;5.87;;;;;;;;;;13098941;22;20436;-82
2023/10/01 17:48:45;;;;;;;8.10;5.88;;;;;;;;;;13092704;22;20452;-82
2023/10/01 17:53:50;;;;;;;8.20;5.53;;;;;;;;;;13098395;22;20367;-83
2023/10/01 17:58:54;;;;;;;8.88;5.93;;;;;;;;;;13094463;22;20448;-81
2023/10/01 18:03:59;;;;;;;12.18;6.47;;;;;;;;;;13093469;22;20384;-84
2023/10/01 18:09:13;;;;;;;16.50;7.00;;;;;;;;;;13105660;22;20420;-84
2023/10/01 18:14:26;;;;;;;17.67;6.40;;;;;;;;;;13092424;22;20375;-82
2023/10/01 18:19:32;;;;;;;17.65;7.63;;;;;;;;;;13089820;22;21136;-83
2023/10/01 18:24:35;;;;;;;19.27;7.43;;;;;;;;;;13091786;22;20444;-83
2023/10/01 18:29:39;;;;;;;21.20;7.82;;;;;;;;;;13091317;22;20360;-83
2023/10/01 18:34:42;;;;;;;15.00;7.15;;;;;;;;;;13106007;22;20355;-83
2023/10/01 18:39:46;;;;;;;13.38;7.78;;;;;;;;;;13085581;22;20367;-83
2023/10/01 18:44:50;;;;;;;11.10;8.23;;;;;;;;;;13091298;22;20460;-84
2023/10/01 18:49:52;;;;;;;11.63;8.20;;;;;;;;;;13089370;22;20376;-83
2023/10/01 18:54:56;;;;;;;11.77;7.90;;;;;;;;;;13088531;22;20375;-84
2023/10/01 19:00:05;;;;;;;12.73;8.65;;;;;;;;;;13089254;22;20375;-84
2023/10/01 19:05:15;;;;;;;12.60;8.32;;;;;;;;;;13101649;22;20375;-83
2023/10/01 19:10:17;;;;;;;13.45;9.10;;;;;;;;;;13095529;22;20680;-83
2023/10/01 19:15:21;;;;;;;13.73;8.80;;;;;;;;;;13092828;22;20382;-82
2023/10/01 19:20:25;;;;;;;15.52;9.02;;;;;;;;;;13108890;22;20425;-83
2023/10/01 19:25:28;;;;;;;13.52;8.88;;;;;;;;;;13109991;22;20463;-83
2023/10/01 19:30:36;;;;;;;14.52;8.73;;;;;;;;;;13109071;22;20404;-82
2023/10/01 19:35:38;;;;;;;11.63;8.43;;;;;;;;;;13113408;22;20347;-82
2023/10/01 19:40:44;;;;;;;13.03;8.90;;;;;;;;;;13116192;22;20363;-83
2023/10/01 19:45:48;;;;;;;15.65;9.27;;;;;;;;;;13093358;22;20375;-82
2023/10/01 19:50:52;;;;;;;13.77;9.33;;;;;;;;;;13093527;22;20463;-82
2023/10/01 19:55:58;;;;;;;15.88;9.52;;;;;;;;;;13094827;22;20460;-82
2023/10/01 20:01:07;;;;;;;12.90;9.75;;;;;;;;;;13092728;22;20758;-82
2023/10/01 20:06:09;;;;;;;13.32;10.77;;;;;;;;;;13093501;22;20375;-82
2023/10/01 20:11:13;;;;;;;15.02;10.55;;;;;;;;;;13093918;22;20383;-82
2023/10/01 20:16:21;;;;;;;18.23;10.80;;;;;;;;;;13094228;22;20742;-82
2023/10/01 20:21:27;;;;;;;14.27;10.80;;;;;;;;;;13093079;22;20371;-82
2023/10/01 20:26:32;;;;;;;14.40;10.63;;;;;;;;;;13111700;22;20405;-82
2023/10/01 20:31:35;;;;;;;16.33;11.93;;;;;;;;;;13093949;22;20374;-81
2023/10/01 20:36:40;;;;;;;16.23;11.33;;;;;;;;;;13114383;22;20412;-82
2023/10/01 20:41:42;;;;;;;13.98;11.60;;;;;;;;;;13093919;22;20379;-82
2023/10/01 20:46:48;;;;;;;16.57;11.23;;;;;;;;;;13096624;22;20359;-82
2023/10/01 20:51:58;;;;;;;16.08;12.50;;;;;;;;;;13092213;22;20405;-83
2023/10/01 20:57:02;;;;;;;16.23;11.43;;;;;;;;;;13094572;22;20847;-83
2023/10/01 21:02:08;;;;;;;15.60;11.63;;;;;;;;;;13096559;22;20480;-83
2023/10/01 21:07:14;;;;;;;15.98;11.32;;;;;;;;;;13100074;22;20908;-83
2023/10/01 21:12:19;;;;;;;15.48;11.18;;;;;;;;;;13121402;22;20656;-83
2023/10/01 21:17:29;;;;;;;16.87;11.40;;;;;;;;;;13104299;22;20416;-83
2023/10/01 21:22:31;;;;;;;12.50;10.50;;;;;;;;;;13127001;22;20699;-83
2023/10/01 21:27:33;;;;;;;15.75;11.52;;;;;;;;;;13109816;22;20826;-83
2023/10/01 21:32:38;;;;;;;14.27;10.80;;;;;;;;;;13107911;22;20364;-84
2023/10/01 21:37:45;;;;;;;15.40;10.97;;;;;;;;;;13108746;22;20408;-83
2023/10/01 21:42:50;;;;;;;13.48;11.15;;;;;;;;;;13130170;22;20371;-83
2023/10/01 21:47:58;;;;;;;14.53;11.30;;;;;;;;;;13105662;22;20371;-84
2023/10/01 21:53:11;;;;;;;13.95;11.45;;;;;;;;;;13106461;22;20404;-83
2023/10/01 21:58:17;;;;;;;13.32;10.15;;;;;;;;;;13107138;22;20364;-84
2023/10/01 22:03:21;;;;;;;14.57;10.20;;;;;;;;;;13129795;22;20455;-83
2023/10/01 22:08:28;;;;;;;12.82;9.80;;;;;;;;;;13107461;22;20363;-83
2023/10/01 22:13:31;;;;;;;13.10;9.60;;;;;;;;;;13108578;22;20409;-84
2023/10/01 22:18:35;;;;;;;13.77;10.63;;;;;;;;;;13108244;22;20363;-83
2023/10/01 22:23:37;;;;;;;11.53;10.33;;;;;;;;;;13108986;22;20853;-83
2023/10/01 22:29:05;;;;;;;14.38;9.98;;;;;;;;;;13107305;22;20368;-83
2023/10/01 22:34:10;;;;;;;13.10;10.53;;;;;;;;;;13107605;22;20359;-83
2023/10/01 22:39:13;;;;;;;14.45;10.40;;;;;;;;;;13129943;22;20377;-83
2023/10/01 22:44:24;;;;;;;14.95;10.40;;;;;;;;;;13106588;22;20409;-83
2023/10/01 22:49:30;;;;;;;13.80;10.32;;;;;;;;;;13108013;22;20360;-83
2023/10/01 22:54:33;;;;;;;13.63;10.27;;;;;;;;;;13128505;22;20347;-83
2023/10/01 22:59:35;;;;;;;13.52;10.73;;;;;;;;;;13106905;22;20363;-83
2023/10/01 23:04:39;;;;;;;13.40;10.30;;;;;;;;;;13107346;22;20379;-84
2023/10/01 23:09:43;;;;;;;12.23;10.35;;;;;;;;;;13127644;22;20367;-83
2023/10/01 23:14:45;;;;;;;14.00;10.50;;;;;;;;;;13101100;22;20436;-83
2023/10/01 23:19:53;;;;;;;12.52;10.20;;;;;;;;;;13106995;22;20359;-83
2023/10/01 23:24:56;;;;;;;13.03;10.40;;;;;;;;;;13107472;22;20379;-82
2023/10/01 23:30:00;;;;;;;14.50;10.80;;;;;;;;;;13106736;22;20360;-83
2023/10/01 23:35:34;;;;;;;15.63;11.00;;;;;;;;;;13107411;22;20356;-83
2023/10/01 23:40:32;;;;;;;14.73;11.35;;;;;;;;;;13106109;22;20427;-83
2023/10/01 23:45:56;;;;;;;14.65;11.20;;;;;;;;;;13106703;22;20399;-83
2023/10/01 23:50:59;;;;;;;14.73;11.25;;;;;;;;;;13106347;22;20439;-83
2023/10/01 23:56:13;;;;;;;13.52;10.77;;;;;;;;;;13107318;22;20394;-84
